Terminal Aerodrome Forecast
Issued by NWS Twin Cities, MN

Home | Current Version | Previous Version | Text Only | Print | Product List | Glossary On
Versions: 1 2 3 4 5 6 7 8 9 10 11 12
000
FTUS43 KMPX 271100
TAFEAU
TAF
KEAU 271139Z 2712/2812 01008KT 1SM -SN BR SCT008 OVC012
     FM271500 34009KT 4SM -SN BR OVC014
     FM271700 31009KT P6SM BKN018 OVC030
     FM280000 25006KT P6SM SCT200=

USA.gov is the U.S. government's official web portal to all federal, state and local government web resources and services.